Juan de Fuca Strait - east entrance: Past 24 Hour Conditions

 

Comox Airport

02:00 PM PDT 22 October 2014
This table is a summary of hourly weather conditions for the past 24 hours.
Date / Time
(PDT)
Wind(knots) Conditions Visibility(km) Pressure(kPa) Air tempC) Relative humidity(%) Dew pointC)
22 October 2014
14:00 SE 10 Light Rainshower 19 100.2 13 94 12
13:00 S 6 Light Rainshower 19 100.3 12 95 11
12:00 SE 13 Cloudy 32 100.2 12 89 11
11:00 calm Cloudy 32 100.2 12 92 10
10:00 calm Mainly Sunny 32 100.2 12 92 11
9:00 calm Fog 19 100.2 10 100 10
8:00 WNW 3 Fog 2 100.1 10 100 10
7:00 WNW 4 Mainly Clear 32 100.1 10 99 10
6:00 S 5 Mainly Clear 32 100.0 11 97 11
5:00 SSE 9 Mainly Clear 32 99.9 11 97 11
4:00 SSE 13 gust 19 Fog 8 99.8 12 98 11
3:00 SSE 17 gust 22 Light Rainshower 8 99.7 11 100 11
2:00 SE 27 gust 33 Rainshower 3 99.6 11 100 11
1:00 SE 33 gust 44 Rainshower 3 99.5 11 100 11
0:00 SE 33 gust 40 Rainshower 3 99.6 11 100 11
21 October 2014
23:00 SE 32 gust 44 Rainshower 3 99.7 11 100 11
22:00 SE 25 gust 40 Rainshower 3 99.9 12 99 12
21:00 S 7 Rainshower 5 100.1 11 99 11
20:00 SW 3 Rainshower 8 100.3 11 100 11
19:00 SSE 5 Light Rainshower 16 100.5 11 99 11
18:00 SE 10 Light Rainshower 10 100.5 11 94 11
17:00 ESE 10 Light Rainshower 8 100.6 11 96 10
16:00 calm Rainshower 4 100.7 11 95 11
15:00 SSE 14 Thunderstorm with light rainshowers 6 100.7 12 97 11
14:00 SE 17 gust 24 Light Rainshower 6 100.7 12 96 11
 
Map of Pacific - South Coast marine weather areas Tsawwassen Ferry Terminal South Nomad - 46036 Sentry Shoal - 46131 South Brooks - 46132 Halibut Bank - 46146 South Moresby - 46147 South Hecate Strait - 46185 West Sea Otter - 46204 La Perouse Bank - 46206 East Dellwood - 46207 Discovery Island Esquimalt Harbour Kelp Reefs Malahat Race Rocks Lightstation Saturna Island Sheringham Point University of Victoria Victoria Gonzales Victoria Int'l Airport Ballenas Islands Campbell River Airport Comox Airport Entrance Island Fanny Island Nanaimo Airport Port Hardy Airport Sisters Islets Estevan Point Sartine Island Solander Island Tofino Airport Grief Point Powell River Airport Sechelt Cape St.James Bella Bella Airport Bella Coola Airport Cathedral Point Herbert Island Point Atkinson Sand Heads Lightstation Vancouver Harbour Vancouver Int'l Airport West Vancouver Port Alberni Howe Sound - Pam Rocks Squamish Airport